Arbon, Idaho
Current Conditions -  °F | °C
As of 7:53 AM on Sunday 23 Nov 2014 (Local Time) from KPIH Reporting Station
Few Clouds Few Clouds  
Wind Chill: 18°   Ceiling: Unl
Heat Index: 29°   Visibility: 10mi
Dew Point: 26°   Wind: 14mph
Humidity: 89%   Direction: 210°SSW
Pressure: 30.15"   Gusts: NA
Location:  42.46°N, 112.57°W
Report Text: KPIH 231453Z 21012KT 10SM FEW040 M02/M03 A3015 RMK AO2 SLP232 T10171033 53032
Loading
Personal Weather Stations






























Interactive Weather Map New forecast layout! Learn more

10-Day Weather Forecast

Advertisements
Track Severe Weather on mobile